createdAt,value
2017-10-17T18:37:02.338Z,49.03
2017-10-17T18:39:32.299Z,45.17
2017-10-17T18:57:05.767Z,41.33
2017-10-17T18:59:36.487Z,44.40
2017-10-17T19:04:52.359Z,38.13
2017-10-17T19:07:23.488Z,41.88
2017-10-17T19:09:54.210Z,36.42
2017-10-17T19:12:25.005Z,45.85
2017-10-17T19:14:55.571Z,38.22
2017-10-17T19:17:26.013Z,36.75
2017-10-17T19:19:56.785Z,34.80
2017-10-17T19:22:29.122Z,34.35
2017-10-17T19:25:01.546Z,41.55
2017-10-17T19:27:34.128Z,38.00
2017-10-17T19:30:07.261Z,37.10
2017-10-17T19:32:39.151Z,36.15
2017-10-17T19:35:10.170Z,40.97
2017-10-17T19:37:41.425Z,35.75
2017-10-17T19:40:12.202Z,37.10
2017-10-17T19:42:44.948Z,34.33
2017-10-17T19:45:15.579Z,34.72
2017-10-17T19:47:45.969Z,35.85
2017-10-17T19:50:16.480Z,29.77
2017-10-17T19:52:46.699Z,33.53
2017-10-17T19:55:18.035Z,26.52
2017-10-17T19:57:50.337Z,32.10
2017-10-17T20:00:22.288Z,32.33
2017-10-17T20:02:53.323Z,33.10
2017-10-17T20:05:23.972Z,29.48
2017-10-17T20:07:57.559Z,32.72
2017-10-17T20:10:33.200Z,29.92
2017-10-17T20:13:03.326Z,28.00
2017-10-17T20:15:33.960Z,31.67
2017-10-17T20:18:04.665Z,29.33
2017-10-17T20:20:35.222Z,28.17
2017-10-17T20:23:07.699Z,25.58
2017-10-17T20:25:38.176Z,30.58
2017-10-17T20:28:08.648Z,30.98
2017-10-17T20:30:39.188Z,25.98
2017-10-17T20:33:09.632Z,29.55
2017-10-17T20:35:40.360Z,25.88
2017-10-17T20:38:12.524Z,28.35
2017-10-17T20:40:45.499Z,27.95
2017-10-17T20:43:15.842Z,27.92
2017-10-17T20:48:46.314Z,28.12
2017-10-17T20:51:35.434Z,25.95
2017-10-17T20:54:26.526Z,24.42
2017-10-17T20:57:23.282Z,22.65
2017-10-17T21:05:36.200Z,22.92
2017-10-17T21:08:26.350Z,24.08
2017-10-17T21:16:58.768Z,23.38
2017-10-17T21:22:43.730Z,24.58
2017-10-17T21:25:28.888Z,23.35
2017-10-17T21:33:57.278Z,24.27
2017-10-17T21:36:33.251Z,25.52
2017-10-17T21:39:03.964Z,22.15
2017-10-17T21:41:40.151Z,23.42
2017-10-17T21:44:19.385Z,24.90
2017-10-17T21:46:51.748Z,24.20
2017-10-17T21:49:22.583Z,25.77
2017-10-17T21:51:52.887Z,21.80
2017-10-17T21:54:23.453Z,21.67
2017-10-17T21:56:56.215Z,23.08
2017-10-17T21:59:27.009Z,20.62
2017-10-17T22:01:57.484Z,24.52
2017-10-17T22:04:27.833Z,27.60
2017-10-17T22:06:58.591Z,21.00
2017-10-17T22:09:29.430Z,21.65
2017-10-17T22:12:00.282Z,24.95
2017-10-17T22:14:30.948Z,24.85
2017-10-17T22:17:01.472Z,23.00
2017-10-17T22:19:32.413Z,22.70
2017-10-17T22:22:03.135Z,21.75
2017-10-17T22:24:33.977Z,21.80
2017-10-17T22:27:04.811Z,26.50
2017-10-17T22:29:35.633Z,22.58
2017-10-17T22:32:06.167Z,20.92
2017-10-17T22:34:36.684Z,21.30
2017-10-17T22:37:07.423Z,22.20
2017-10-17T22:39:38.067Z,21.77
2017-10-17T22:42:08.904Z,23.98
2017-10-17T22:44:39.640Z,21.17
2017-10-17T22:47:10.780Z,23.33
2017-10-17T22:49:41.282Z,21.87
2017-10-17T22:52:11.938Z,22.55
2017-10-17T22:54:42.763Z,21.27
2017-10-17T22:57:13.504Z,19.95
2017-10-17T22:59:44.724Z,21.42
2017-10-17T23:02:16.070Z,20.73
2017-10-17T23:04:46.725Z,21.05
2017-10-17T23:07:18.068Z,20.02
2017-10-17T23:09:49.224Z,20.77
2017-10-17T23:12:19.633Z,19.90
2017-10-17T23:14:50.577Z,22.17
2017-10-17T23:17:32.679Z,21.80
2017-10-17T23:20:16.107Z,20.30
2017-10-17T23:22:47.455Z,20.05
2017-10-17T23:25:18.883Z,20.27
2017-10-17T23:27:49.428Z,21.45
2017-10-17T23:30:20.267Z,19.40
2017-10-17T23:32:51.186Z,20.42
2017-10-17T23:35:21.828Z,19.95
2017-10-17T23:37:52.267Z,19.00
2017-10-17T23:40:22.896Z,18.77
2017-10-17T23:42:53.832Z,20.27
2017-10-17T23:45:24.146Z,19.58
2017-10-17T23:47:54.891Z,19.02
2017-10-17T23:50:26.236Z,21.27
2017-10-17T23:52:56.528Z,19.25
2017-10-17T23:55:27.490Z,19.30
2017-10-17T23:57:58.197Z,19.12
